Time;durP1;ratioP1;P1;durP2;ratioP2;P2;SDS_P1;SDS_P2;PMS_P1;PMS_P2;Temp;Humidity;BMP_temperature;BMP_pressure;BME280_temperature;BME280_humidity;BME280_pressure;Samples;Min_cycle;Max_cycle;Signal;HPM_P1;HPM_P2
2022/09/11 00:00:42;;;;;;;5.53;1.80;;;17.40;99.90;;;;;;5065903;28;20068;-74
2022/09/11 00:03:09;;;;;;;4.70;1.60;;;17.40;99.90;;;;;;5071421;28;20103;-74
2022/09/11 00:05:39;;;;;;;3.35;1.50;;;17.30;99.90;;;;;;5069471;28;20496;-74
2022/09/11 00:08:11;;;;;;;6.75;1.80;;;17.20;99.90;;;;;;5072810;28;20062;-74
2022/09/11 00:10:40;;;;;;;2.90;1.60;;;17.20;99.90;;;;;;5076131;28;20060;-74
2022/09/11 00:13:10;;;;;;;5.75;1.73;;;17.10;99.90;;;;;;5077268;28;20027;-74
2022/09/11 00:15:37;;;;;;;;;;;17.00;99.90;;;;;;5071152;28;20544;-74
2022/09/11 00:18:04;;;;;;;4.32;1.52;;;17.00;99.90;;;;;;5059430;28;19904;-73
2022/09/11 00:20:32;;;;;;;4.55;1.73;;;16.90;99.90;;;;;;5061233;28;20036;-74
2022/09/11 00:22:58;;;;;;;4.38;1.77;;;17.00;99.90;;;;;;5061696;28;20017;-74
2022/09/11 00:25:24;;;;;;;2.42;1.38;;;16.90;99.90;;;;;;5071573;28;20031;-73
2022/09/11 00:27:50;;;;;;;1.88;1.38;;;16.90;99.90;;;;;;5062177;28;20047;-74
2022/09/11 00:30:17;;;;;;;3.97;1.63;;;17.00;99.90;;;;;;5070303;28;20020;-74
2022/09/11 00:32:43;;;;;;;4.63;2.08;;;17.00;99.90;;;;;;5066012;28;20032;-74
2022/09/11 00:35:08;;;;;;;5.18;1.58;;;17.00;99.90;;;;;;5070922;28;20020;-74
2022/09/11 00:37:34;;;;;;;4.72;1.80;;;16.90;99.90;;;;;;5068421;28;20013;-74
2022/09/11 00:40:00;;;;;;;5.57;1.92;;;16.80;99.90;;;;;;5074346;28;20099;-74
2022/09/11 00:42:26;;;;;;;5.00;1.80;;;16.80;99.90;;;;;;5072462;28;20408;-74
2022/09/11 00:44:59;;;;;;;4.15;1.70;;;16.70;99.90;;;;;;5076345;28;20028;-74
2022/09/11 00:47:25;;;;;;;4.40;1.90;;;16.70;99.90;;;;;;5075363;28;20024;-74
2022/09/11 00:49:55;;;;;;;2.55;1.67;;;16.70;99.90;;;;;;5057121;28;20082;-74
2022/09/11 00:52:28;;;;;;;4.65;1.98;;;16.60;99.90;;;;;;5059807;28;20033;-74
2022/09/11 00:55:06;;;;;;;4.13;1.77;;;16.60;99.90;;;;;;5060060;28;20472;-74
2022/09/11 00:57:38;;;;;;;2.92;1.75;;;16.50;99.90;;;;;;5064481;28;20508;-74
2022/09/11 01:00:06;;;;;;;7.28;2.55;;;16.50;99.90;;;;;;5067194;28;20020;-74
2022/09/11 01:02:35;;;;;;;3.38;1.60;;;16.40;99.90;;;;;;5069222;28;20027;-74
2022/09/11 01:05:02;;;;;;;4.18;1.95;;;16.30;99.90;;;;;;5063133;28;20029;-74
2022/09/11 01:07:29;;;;;;;3.95;1.48;;;16.30;99.90;;;;;;5069661;28;20056;-74
2022/09/11 01:09:55;;;;;;;6.85;1.80;;;16.20;99.90;;;;;;5071699;28;20033;-74
2022/09/11 01:12:49;;;;;;;4.28;1.60;;;16.20;99.90;;;;;;5069411;28;20021;-74
2022/09/11 01:15:35;;;;;;;3.55;1.70;;;16.10;99.90;;;;;;5057900;28;20027;-74
2022/09/11 01:18:18;;;;;;;2.58;1.55;;;16.10;99.90;;;;;;5058773;28;20485;-74
2022/09/11 01:20:44;;;;;;;2.83;1.80;;;16.10;99.90;;;;;;5074487;28;20119;-74
2022/09/11 01:24:08;;;;;;;1.95;1.40;;;16.00;99.90;;;;;;5065907;28;20029;-74
2022/09/11 01:26:56;;;;;;;4.88;2.05;;;16.00;99.90;;;;;;5032542;28;20517;-74
2022/09/11 01:29:31;;;;;;;5.93;1.80;;;16.00;99.90;;;;;;5029457;28;20069;-74
2022/09/11 01:32:06;;;;;;;3.33;1.50;;;16.00;99.90;;;;;;5048770;28;20042;-74
2022/09/11 01:34:50;;;;;;;4.43;2.00;;;15.90;99.90;;;;;;5071048;28;20025;-74
2022/09/11 01:37:29;;;;;;;4.28;1.77;;;15.90;99.90;;;;;;5056232;28;20033;-74
2022/09/11 01:40:02;;;;;;;2.85;1.70;;;15.90;99.90;;;;;;5060982;28;20056;-74
2022/09/11 01:42:32;;;;;;;6.00;2.13;;;15.80;99.90;;;;;;5069874;28;20071;-74
2022/09/11 01:44:58;;;;;;;8.02;1.85;;;15.70;99.90;;;;;;5065198;28;20035;-74
2022/09/11 01:47:26;;;;;;;8.63;1.80;;;15.70;99.90;;;;;;5062775;28;20025;-74
2022/09/11 01:50:07;;;;;;;2.63;1.60;;;15.70;99.90;;;;;;5067720;28;20071;-74
2022/09/11 01:52:40;;;;;;;5.03;1.80;;;15.70;99.90;;;;;;5065897;28;21365;-74
2022/09/11 01:55:16;;;;;;;6.38;1.75;;;15.60;99.90;;;;;;5069771;28;20025;-74
2022/09/11 01:57:44;;;;;;;3.17;1.63;;;15.60;99.90;;;;;;5071159;28;20043;-74
2022/09/11 02:00:12;;;;;;;5.20;1.95;;;15.60;99.90;;;;;;5073580;28;20035;-74
2022/09/11 02:02:45;;;;;;;4.80;2.22;;;15.60;99.90;;;;;;5073741;28;20023;-74
2022/09/11 02:05:19;;;;;;;3.17;2.00;;;15.50;99.90;;;;;;5074322;28;20031;-74
2022/09/11 02:07:58;;;;;;;3.60;1.92;;;15.50;99.90;;;;;;5057251;28;20100;-74
2022/09/11 02:10:41;;;;;;;4.38;2.00;;;15.40;99.90;;;;;;5058438;28;20051;-74
2022/09/11 02:13:13;;;;;;;8.95;2.03;;;15.40;99.90;;;;;;5059123;28;20043;-74
2022/09/11 02:15:47;;;;;;;7.40;2.80;;;15.30;99.90;;;;;;5063497;28;20112;-74
2022/09/11 02:18:24;;;;;;;3.75;1.80;;;15.30;99.90;;;;;;5068173;28;20064;-74
2022/09/11 02:20:51;;;;;;;4.97;2.10;;;15.30;99.90;;;;;;5073462;28;20020;-73
2022/09/11 02:23:18;;;;;;;7.07;2.75;;;15.20;99.90;;;;;;5072313;28;20021;-74
2022/09/11 02:25:44;;;;;;;5.75;2.10;;;15.20;99.90;;;;;;5075111;28;20108;-76
2022/09/11 02:28:10;;;;;;;3.95;1.95;;;15.20;99.90;;;;;;5069681;28;20025;-76
2022/09/11 02:30:39;;;;;;;5.03;2.00;;;15.10;99.90;;;;;;5067439;28;20024;-77
2022/09/11 02:33:05;;;;;;;5.57;2.72;;;15.10;99.90;;;;;;5066950;28;20021;-76
2022/09/11 02:35:42;;;;;;;2.63;1.92;;;15.10;99.90;;;;;;5075718;28;20089;-76
2022/09/11 02:38:26;;;;;;;3.60;1.80;;;15.00;99.90;;;;;;5072689;28;20092;-77
2022/09/11 02:41:07;;;;;;;4.38;1.70;;;15.00;99.90;;;;;;5075087;28;20507;-77
2022/09/11 02:44:03;;;;;;;7.57;1.92;;;14.90;99.90;;;;;;5068619;28;20032;-76
2022/09/11 02:46:53;;;;;;;5.55;1.95;;;14.90;99.90;;;;;;5060986;28;20013;-77
2022/09/11 02:49:28;;;;;;;2.45;2.08;;;14.90;99.90;;;;;;5061168;28;20040;-76
2022/09/11 02:52:09;;;;;;;4.88;2.65;;;14.90;99.90;;;;;;5069458;28;20066;-76
2022/09/11 02:55:00;;;;;;;4.30;2.30;;;14.90;99.90;;;;;;5067242;28;20050;-77
2022/09/11 02:57:49;;;;;;;3.95;2.10;;;14.80;99.90;;;;;;5067555;28;20039;-76
2022/09/11 03:00:15;;;;;;;7.03;2.20;;;14.80;99.90;;;;;;5065058;28;20508;-76
2022/09/11 03:02:43;;;;;;;4.70;1.77;;;14.80;99.90;;;;;;5068184;28;20090;-76
2022/09/11 03:05:10;;;;;;;2.63;1.90;;;14.70;99.90;;;;;;5069202;28;20080;-76
2022/09/11 03:07:36;;;;;;;3.10;1.80;;;14.70;99.90;;;;;;5074217;28;20020;-76
2022/09/11 03:10:02;;;;;;;6.13;2.78;;;14.70;99.90;;;;;;5072371;28;20031;-76
2022/09/11 03:12:28;;;;;;;4.30;1.70;;;14.70;99.90;;;;;;5076894;28;20024;-76
2022/09/11 03:14:54;;;;;;;2.75;1.80;;;14.70;99.90;;;;;;5075653;28;20025;-76
2022/09/11 03:17:20;;;;;;;10.65;2.25;;;14.70;99.90;;;;;;5078706;28;20016;-76
2022/09/11 03:19:46;;;;;;;5.25;2.10;;;14.70;99.90;;;;;;5064998;28;20039;-77
2022/09/11 03:22:13;;;;;;;5.80;2.25;;;14.60;99.90;;;;;;5073741;28;20025;-76
2022/09/11 03:24:39;;;;;;;3.13;2.10;;;14.60;99.90;;;;;;5065813;28;20020;-77
2022/09/11 03:27:05;;;;;;;4.88;1.83;;;14.60;99.90;;;;;;5075826;28;20373;-77
2022/09/11 03:29:32;;;;;;;3.33;2.00;;;14.60;99.90;;;;;;5062547;28;20037;-76
2022/09/11 03:31:58;;;;;;;2.53;1.83;;;14.50;99.90;;;;;;5071147;28;20032;-76
2022/09/11 03:34:27;;;;;;;4.35;1.80;;;14.50;99.90;;;;;;5064963;28;20021;-76
2022/09/11 03:36:52;;;;;;;6.25;2.78;;;14.50;99.90;;;;;;5071702;28;20040;-76
2022/09/11 03:39:18;;;;;;;4.32;1.80;;;14.40;99.90;;;;;;5068914;28;20032;-76
2022/09/11 03:41:44;;;;;;;3.78;2.00;;;14.40;99.90;;;;;;5073703;28;20055;-76
2022/09/11 03:44:11;;;;;;;4.45;1.90;;;14.40;99.90;;;;;;5072922;28;20107;-76
2022/09/11 03:46:38;;;;;;;6.50;2.15;;;14.30;99.90;;;;;;5075567;28;20479;-76
2022/09/11 03:49:05;;;;;;;3.72;2.08;;;14.30;99.90;;;;;;5074473;28;20024;-77
2022/09/11 03:51:31;;;;;;;5.15;1.88;;;14.30;99.90;;;;;;5071523;28;20024;-76
2022/09/11 03:54:00;;;;;;;6.97;2.33;;;14.30;99.90;;;;;;5059251;28;20029;-77
2022/09/11 03:56:27;;;;;;;4.30;2.00;;;14.30;99.90;;;;;;5061327;28;20028;-76
2022/09/11 03:58:59;;;;;;;2.72;2.15;;;14.30;99.90;;;;;;5062667;28;20021;-76
2022/09/11 04:01:25;;;;;;;4.68;2.33;;;14.30;99.90;;;;;;5063988;28;20024;-76
2022/09/11 04:03:51;;;;;;;4.30;1.77;;;14.30;99.90;;;;;;5065588;28;20059;-76
2022/09/11 04:06:18;;;;;;;4.60;1.70;;;14.30;99.90;;;;;;5067422;28;20112;-77
2022/09/11 04:08:44;;;;;;;4.28;2.45;;;14.20;99.90;;;;;;5066763;28;20128;-76
2022/09/11 04:11:12;;;;;;;2.97;2.40;;;14.20;99.90;;;;;;5071390;28;20052;-76
2022/09/11 04:13:41;;;;;;;2.63;1.90;;;14.20;99.90;;;;;;5068381;28;20025;-76
2022/09/11 04:16:11;;;;;;;3.03;1.90;;;14.20;99.90;;;;;;5072695;28;20035;-76
2022/09/11 04:18:38;;;;;;;6.53;2.72;;;14.10;99.90;;;;;;5073299;28;20020;-76
2022/09/11 04:21:05;;;;;;;3.78;2.08;;;14.10;99.90;;;;;;5076689;28;20039;-76
2022/09/11 04:23:32;;;;;;;3.00;1.80;;;14.10;99.90;;;;;;5077847;28;20484;-76
2022/09/11 04:25:59;;;;;;;4.35;2.22;;;14.00;99.90;;;;;;5067573;28;20419;-76
2022/09/11 04:28:28;;;;;;;4.80;2.10;;;14.00;99.90;;;;;;5075991;28;20029;-76
2022/09/11 04:30:56;;;;;;;4.35;2.25;;;14.00;99.90;;;;;;5077476;28;20024;-76
2022/09/11 04:33:23;;;;;;;5.55;2.30;;;14.00;99.90;;;;;;5060679;28;20052;-76
2022/09/11 04:35:49;;;;;;;9.00;2.67;;;14.00;99.90;;;;;;5068835;28;20128;-77
2022/09/11 04:38:15;;;;;;;4.40;2.35;;;14.00;99.90;;;;;;5064261;28;20033;-76
2022/09/11 04:40:41;;;;;;;4.05;2.40;;;14.00;99.90;;;;;;5060557;28;20116;-76
2022/09/11 04:43:07;;;;;;;7.03;2.53;;;13.90;99.90;;;;;;5065361;28;20028;-76
2022/09/11 04:45:34;;;;;;;7.35;2.20;;;13.90;99.90;;;;;;5062671;28;20024;-76
2022/09/11 04:48:00;;;;;;;10.63;2.72;;;13.90;99.90;;;;;;5068650;28;20596;-76
2022/09/11 04:50:27;;;;;;;3.78;2.13;;;13.90;99.90;;;;;;5067313;28;20021;-76
2022/09/11 04:52:53;;;;;;;3.45;2.08;;;13.80;99.90;;;;;;5074089;28;20073;-76
2022/09/11 04:55:19;;;;;;;5.15;2.38;;;13.80;99.90;;;;;;5072232;28;20016;-76
2022/09/11 04:57:45;;;;;;;5.65;2.22;;;13.80;99.90;;;;;;5073928;28;20389;-77
2022/09/11 05:00:12;;;;;;;2.95;2.05;;;13.80;99.90;;;;;;5075631;28;20096;-76
2022/09/11 05:02:39;;;;;;;6.05;2.78;;;13.80;99.90;;;;;;5076258;28;20060;-77
2022/09/11 05:05:05;;;;;;;3.85;2.13;;;13.70;99.90;;;;;;5065554;28;20020;-76
2022/09/11 05:07:31;;;;;;;5.35;2.47;;;13.70;99.90;;;;;;5060114;28;20024;-77
2022/09/11 05:09:57;;;;;;;6.22;2.20;;;13.70;99.90;;;;;;5059976;28;20075;-76
2022/09/11 05:12:23;;;;;;;5.07;2.22;;;13.80;99.90;;;;;;5074556;28;20365;-76
2022/09/11 05:14:50;;;;;;;5.22;2.20;;;13.80;99.90;;;;;;5073581;28;20095;-76
2022/09/11 05:17:15;;;;;;;5.25;2.05;;;13.70;99.90;;;;;;5072441;28;20024;-76
2022/09/11 05:19:42;;;;;;;5.20;1.90;;;13.70;99.90;;;;;;5072296;28;20028;-76
2022/09/11 05:22:08;;;;;;;3.78;2.25;;;13.70;99.90;;;;;;5064475;28;20035;-76
2022/09/11 05:24:34;;;;;;;6.15;2.10;;;13.70;99.90;;;;;;5065172;28;20017;-76
2022/09/11 05:27:00;;;;;;;3.28;2.33;;;13.70;99.90;;;;;;5068447;28;20059;-77
2022/09/11 05:29:29;;;;;;;5.43;2.17;;;13.70;99.90;;;;;;5069722;28;20076;-76
2022/09/11 05:31:58;;;;;;;3.58;2.25;;;13.70;99.90;;;;;;5070084;28;20025;-76
2022/09/11 05:34:27;;;;;;;4.47;2.47;;;13.70;99.90;;;;;;5065239;28;20024;-76
2022/09/11 05:36:56;;;;;;;3.88;2.25;;;13.70;99.90;;;;;;5074426;28;20102;-77
2022/09/11 05:39:22;;;;;;;5.75;2.13;;;13.70;99.90;;;;;;5073635;28;20430;-77
2022/09/11 05:41:54;;;;;;;6.38;1.90;;;13.70;99.90;;;;;;5069270;28;20025;-76
2022/09/11 05:44:20;;;;;;;3.03;1.90;;;13.70;99.90;;;;;;5064776;28;20016;-77
2022/09/11 05:46:47;;;;;;;6.93;2.75;;;13.80;99.90;;;;;;5073563;28;20031;-76
2022/09/11 05:49:13;;;;;;;5.55;2.35;;;13.80;99.90;;;;;;5071976;28;20112;-76
2022/09/11 05:51:40;;;;;;;3.95;2.60;;;13.80;99.90;;;;;;5075304;28;20078;-76
2022/09/11 05:54:07;;;;;;;5.50;2.20;;;13.80;99.90;;;;;;5073061;28;20021;-76
2022/09/11 05:56:33;;;;;;;3.38;2.25;;;13.90;99.90;;;;;;5057927;28;20025;-77
2022/09/11 05:58:59;;;;;;;3.47;2.38;;;13.90;99.90;;;;;;5060919;28;20046;-76
2022/09/11 06:01:26;;;;;;;5.90;2.67;;;14.00;99.90;;;;;;5059942;28;20493;-77
2022/09/11 06:03:53;;;;;;;2.95;2.00;;;14.00;99.90;;;;;;5063056;28;20024;-76
2022/09/11 06:06:21;;;;;;;6.95;2.05;;;14.10;99.90;;;;;;5062597;28;20108;-77
2022/09/11 06:08:48;;;;;;;5.88;2.72;;;14.10;99.90;;;;;;5066173;28;20066;-77
2022/09/11 06:11:16;;;;;;;4.45;2.10;;;14.30;99.90;;;;;;5073014;28;20868;-77
2022/09/11 06:13:43;;;;;;;5.38;2.25;;;14.30;99.90;;;;;;5070142;28;20016;-77
2022/09/11 06:16:11;;;;;;;2.75;2.33;;;14.40;99.90;;;;;;5074338;28;20024;-78
2022/09/11 06:18:37;;;;;;;4.10;2.33;;;14.40;99.90;;;;;;5072492;28;20016;-76
2022/09/11 06:21:06;;;;;;;8.45;3.15;;;14.50;99.90;;;;;;5075353;28;20028;-76
2022/09/11 06:23:33;;;;;;;4.55;2.55;;;14.60;99.90;;;;;;5075118;28;20016;-76
2022/09/11 06:26:04;;;;;;;3.75;2.30;;;14.70;99.90;;;;;;5078668;28;20496;-76
2022/09/11 06:28:29;;;;;;;;;;;14.70;99.90;;;;;;5079710;28;20012;-76
2022/09/11 06:30:55;;;;;;;3.85;2.40;;;14.70;99.90;;;;;;5069973;28;20973;-76
2022/09/11 06:33:21;;;;;;;8.70;2.58;;;14.80;99.90;;;;;;5079907;28;20100;-76
2022/09/11 06:35:58;;;;;;;6.22;2.63;;;15.00;99.90;;;;;;5076823;28;20044;-76
2022/09/11 06:38:24;;;;;;;4.45;2.40;;;15.00;99.90;;;;;;5064867;28;20029;-76
2022/09/11 06:40:50;;;;;;;4.47;2.33;;;15.10;99.90;;;;;;5072939;28;20021;-76
2022/09/11 06:43:17;;;;;;;5.07;2.58;;;15.20;99.90;;;;;;5078344;28;20530;-76
2022/09/11 06:45:43;;;;;;;5.32;2.35;;;15.30;99.90;;;;;;5079315;28;20393;-76
2022/09/11 06:48:09;;;;;;;9.38;2.50;;;15.40;99.90;;;;;;5066155;28;20034;-76
2022/09/11 06:50:40;;;;;;;2.80;1.60;;;15.40;99.90;;;;;;5067835;28;20096;-76
2022/09/11 06:53:07;;;;;;;5.60;1.95;;;15.60;99.90;;;;;;5062532;28;20045;-76
2022/09/11 06:55:33;;;;;;;7.10;2.67;;;15.60;99.90;;;;;;5064114;28;20021;-76
2022/09/11 06:58:01;;;;;;;4.22;2.33;;;15.70;99.90;;;;;;5067531;28;20029;-76
2022/09/11 07:00:27;;;;;;;5.28;2.30;;;15.80;99.90;;;;;;5064928;28;20037;-76
2022/09/11 07:02:53;;;;;;;7.38;2.40;;;15.90;99.90;;;;;;5070137;28;20097;-76
2022/09/11 07:05:21;;;;;;;3.50;2.10;;;16.00;99.90;;;;;;5071608;28;20025;-76
2022/09/11 07:07:49;;;;;;;6.38;2.22;;;16.10;99.90;;;;;;5074354;28;20478;-76
2022/09/11 07:10:15;;;;;;;5.13;2.20;;;16.20;99.90;;;;;;5074608;28;20028;-76
2022/09/11 07:12:41;;;;;;;3.75;2.03;;;16.30;99.90;;;;;;5075278;28;20020;-76
2022/09/11 07:15:08;;;;;;;6.28;2.65;;;16.50;99.90;;;;;;5069495;28;20028;-76
2022/09/11 07:17:35;;;;;;;4.18;2.03;;;16.70;99.90;;;;;;5066234;28;20029;-77
2022/09/11 07:20:06;;;;;;;3.08;2.30;;;16.80;99.90;;;;;;5065821;28;20521;-76
2022/09/11 07:22:33;;;;;;;6.47;2.13;;;16.90;99.90;;;;;;5075248;28;20028;-77
2022/09/11 07:24:59;;;;;;;2.50;1.80;;;17.10;99.90;;;;;;5073525;28;20544;-76
2022/09/11 07:27:30;;;;;;;7.55;2.13;;;17.30;99.90;;;;;;5073484;28;20040;-77
2022/09/11 07:29:56;;;;;;;3.72;1.90;;;17.40;99.90;;;;;;5070109;28;20081;-76
2022/09/11 07:32:22;;;;;;;5.93;2.08;;;17.60;99.90;;;;;;5074543;28;20396;-77
2022/09/11 07:34:48;;;;;;;4.80;1.92;;;17.70;99.90;;;;;;5074516;28;20017;-75
2022/09/11 07:37:14;;;;;;;3.90;1.98;;;17.90;99.90;;;;;;5075113;28;20048;-76
2022/09/11 07:39:40;;;;;;;4.22;2.05;;;18.00;99.90;;;;;;5078904;28;20032;-77
2022/09/11 07:42:06;;;;;;;4.30;1.80;;;18.10;99.90;;;;;;5074726;28;20035;-76
2022/09/11 07:44:34;;;;;;;5.32;1.70;;;18.30;99.90;;;;;;5072428;28;20028;-76
2022/09/11 07:47:00;;;;;;;4.70;2.53;;;18.40;99.90;;;;;;5072997;28;20025;-76
2022/09/11 07:49:27;;;;;;;4.25;1.95;;;18.60;99.90;;;;;;5066581;28;20032;-74
2022/09/11 07:51:54;;;;;;;3.42;1.60;;;18.80;99.90;;;;;;5067335;28;20013;-75
2022/09/11 07:54:20;;;;;;;6.10;2.00;;;18.90;99.90;;;;;;5075532;28;20038;-73
2022/09/11 07:56:47;;;;;;;5.07;2.33;;;19.00;99.90;;;;;;5071742;28;20036;-75
2022/09/11 07:59:13;;;;;;;5.60;2.20;;;19.20;99.90;;;;;;5071572;28;20373;-74
2022/09/11 08:01:41;;;;;;;4.15;1.52;;;19.30;99.90;;;;;;5073789;28;20024;-74
2022/09/11 08:04:09;;;;;;;4.90;2.03;;;19.50;99.90;;;;;;5072340;28;20025;-75
2022/09/11 08:06:37;;;;;;;6.60;1.60;;;19.60;99.90;;;;;;5076600;28;20472;-74
2022/09/11 08:09:08;;;;;;;4.30;1.77;;;19.70;99.90;;;;;;5076893;28;20016;-74
2022/09/11 08:11:40;;;;;;;4.82;1.92;;;19.80;99.90;;;;;;5076357;28;20020;-74
2022/09/11 08:14:06;;;;;;;2.95;1.60;;;20.00;99.90;;;;;;5062296;28;20067;-75
2022/09/11 08:16:34;;;;;;;4.65;1.80;;;20.10;99.90;;;;;;5062216;28;20024;-73
2022/09/11 08:19:01;;;;;;;7.40;2.40;;;20.30;99.90;;;;;;5076634;28;20012;-75
2022/09/11 08:21:26;;;;;;;3.58;1.48;;;20.50;99.90;;;;;;5076834;28;20063;-73
2022/09/11 08:23:52;;;;;;;3.65;1.60;;;20.60;99.90;;;;;;5065065;28;20508;-74
2022/09/11 08:26:21;;;;;;;4.72;1.45;;;20.70;99.90;;;;;;5072942;28;20441;-74
2022/09/11 08:28:49;;;;;;;3.05;1.30;;;21.00;99.90;;;;;;5064635;28;20437;-75
2022/09/11 08:31:16;;;;;;;2.25;1.27;;;21.10;99.90;;;;;;5077033;28;20028;-75
2022/09/11 08:33:42;;;;;;;3.03;1.35;;;21.30;99.90;;;;;;5063601;28;20484;-75
2022/09/11 08:36:09;;;;;;;2.83;1.35;;;21.40;99.90;;;;;;5063354;28;20104;-76
2022/09/11 08:38:36;;;;;;;2.28;1.15;;;21.60;99.90;;;;;;5061627;28;20013;-75
2022/09/11 08:41:29;;;;;;;8.30;1.50;;;21.70;99.90;;;;;;5060601;28;20044;-76
2022/09/11 08:44:22;;;;;;;3.22;1.27;;;21.90;99.90;;;;;;5070208;28;20021;-74
2022/09/11 08:46:54;;;;;;;5.25;1.20;;;22.10;99.90;;;;;;5070052;28;20060;-74
2022/09/11 08:49:30;;;;;;;5.38;1.52;;;22.30;99.90;;;;;;5067231;28;20025;-75
2022/09/11 08:52:00;;;;;;;6.10;1.60;;;22.40;99.90;;;;;;5074697;28;20031;-74
2022/09/11 08:54:37;;;;;;;5.17;2.07;;;22.60;99.90;;;;;;5071723;28;20032;-74
2022/09/11 08:57:21;;;;;;;3.75;1.10;;;22.70;99.90;;;;;;5072145;28;20012;-74
2022/09/11 08:59:56;;;;;;;5.57;1.10;;;22.90;99.90;;;;;;5065901;28;20036;-74
2022/09/11 09:03:05;;;;;;;3.58;1.25;;;23.10;99.90;;;;;;5075223;28;20042;-76
2022/09/11 09:05:49;;;;;;;1.55;0.80;;;23.40;99.90;;;;;;5069769;28;20040;-79
2022/09/11 09:08:23;;;;;;;4.32;1.05;;;23.40;99.90;;;;;;5057554;28;20400;-78
2022/09/11 09:11:11;;;;;;;3.22;1.38;;;23.50;99.90;;;;;;5071941;28;20032;-76
2022/09/11 09:14:07;;;;;;;8.57;1.38;;;23.50;99.90;;;;;;5061410;28;20029;-77
2022/09/11 09:17:03;;;;;;;4.68;1.05;;;23.70;99.90;;;;;;5061893;28;20028;-78
2022/09/11 09:19:45;;;;;;;1.65;0.88;;;23.80;99.90;;;;;;5075576;28;20031;-77
2022/09/11 09:22:28;;;;;;;3.10;1.13;;;23.80;99.90;;;;;;5069956;28;20021;-76
2022/09/11 09:24:59;;;;;;;4.15;1.55;;;24.00;99.90;;;;;;5075327;28;20051;-77
2022/09/11 09:27:36;;;;;;;5.25;1.20;;;24.10;99.90;;;;;;5072365;28;20021;-78
2022/09/11 09:30:05;;;;;;;4.80;1.10;;;24.20;99.90;;;;;;5074478;28;20020;-79
2022/09/11 09:32:41;;;;;;;2.60;0.88;;;24.30;99.90;;;;;;5075073;28;20032;-77
2022/09/11 09:35:18;;;;;;;2.42;0.98;;;24.30;99.90;;;;;;5075457;28;20114;-77
2022/09/11 09:37:44;;;;;;;4.78;1.00;;;24.50;99.90;;;;;;5062420;28;20053;-78
2022/09/11 09:40:16;;;;;;;4.70;1.23;;;24.60;99.90;;;;;;5058338;28;20029;-78
2022/09/11 09:43:13;;;;;;;1.80;1.00;;;24.80;99.90;;;;;;5060064;28;20033;-77
2022/09/11 09:46:00;;;;;;;3.38;0.80;;;24.90;99.90;;;;;;5067695;28;20036;-78
2022/09/11 09:48:30;;;;;;;3.88;1.10;;;25.00;99.90;;;;;;5063919;28;20389;-77
2022/09/11 09:50:56;;;;;;;4.65;1.25;;;25.00;99.70;;;;;;5067938;28;20033;-77
2022/09/11 09:53:31;;;;;;;4.53;1.08;;;25.10;98.50;;;;;;5070245;28;20020;-78
2022/09/11 09:55:59;;;;;;;3.42;1.17;;;25.00;99.20;;;;;;5069704;28;20081;-77
2022/09/11 09:58:33;;;;;;;4.38;1.27;;;25.00;99.30;;;;;;5072697;28;20017;-77
2022/09/11 10:00:59;;;;;;;2.30;0.80;;;25.20;99.60;;;;;;5073240;28;20024;-76
2022/09/11 10:03:25;;;;;;;3.75;0.82;;;25.20;98.50;;;;;;5075200;28;20391;-77
2022/09/11 10:05:53;;;;;;;2.67;1.10;;;25.30;98.90;;;;;;5075882;28;20544;-79
2022/09/11 10:08:33;;;;;;;2.75;0.70;;;25.40;98.30;;;;;;5078577;28;20436;-77
2022/09/11 10:11:04;;;;;;;2.42;1.05;;;25.40;98.00;;;;;;5067547;28;20020;-77
2022/09/11 10:13:36;;;;;;;6.65;1.08;;;25.50;97.20;;;;;;5064975;28;20025;-77
2022/09/11 10:16:18;;;;;;;6.82;1.80;;;25.60;98.10;;;;;;5061954;28;20389;-77
2022/09/11 10:18:45;;;;;;;2.88;0.90;;;25.80;97.50;;;;;;5065616;28;20027;-78
2022/09/11 10:21:11;;;;;;;2.20;1.20;;;25.70;96.00;;;;;;5062582;28;20036;-79
2022/09/11 10:23:55;;;;;;;5.15;1.50;;;25.80;96.40;;;;;;5068593;28;20024;-79
2022/09/11 10:26:44;;;;;;;3.22;0.73;;;25.80;97.00;;;;;;5076242;28;20021;-77
2022/09/11 10:29:23;;;;;;;1.88;0.80;;;25.90;95.90;;;;;;5075776;28;20035;-75
2022/09/11 10:31:53;;;;;;;3.25;0.88;;;26.00;96.40;;;;;;5077450;28;20100;-75
2022/09/11 10:34:22;;;;;;;4.72;1.17;;;26.10;95.00;;;;;;5077873;28;20033;-74
2022/09/11 10:36:52;;;;;;;1.50;0.70;;;26.20;96.20;;;;;;5072064;28;20064;-76
2022/09/11 10:39:20;;;;;;;2.50;1.55;;;26.30;95.30;;;;;;5060933;28;20017;-78
2022/09/11 10:41:53;;;;;;;2.85;1.38;;;26.40;95.00;;;;;;5062497;28;20021;-79
2022/09/11 10:44:21;;;;;;;3.67;1.00;;;26.40;95.40;;;;;;5062006;28;20018;-75
2022/09/11 10:47:03;;;;;;;3.65;1.00;;;26.50;93.10;;;;;;5065662;28;20480;-76
2022/09/11 10:49:29;;;;;;;1.77;0.63;;;26.50;94.50;;;;;;5078245;28;20028;-76
2022/09/11 10:52:04;;;;;;;3.03;1.20;;;26.50;94.00;;;;;;5074523;28;20028;-75
2022/09/11 10:54:39;;;;;;;2.28;0.90;;;26.60;93.80;;;;;;5076202;28;20020;-75
2022/09/11 10:57:30;;;;;;;3.78;1.40;;;26.70;94.50;;;;;;5073344;28;20033;-76
2022/09/11 11:00:10;;;;;;;1.00;0.63;;;26.70;92.70;;;;;;5066487;28;20021;-76
2022/09/11 11:02:42;;;;;;;3.30;1.27;;;26.90;93.20;;;;;;5071711;28;20032;-75
2022/09/11 11:05:28;;;;;;;2.92;1.10;;;27.00;93.20;;;;;;5075081;28;20476;-75
2022/09/11 11:08:00;;;;;;;2.40;0.98;;;27.30;92.40;;;;;;5069272;28;20035;-75
2022/09/11 11:11:06;;;;;;;2.72;1.08;;;27.30;91.70;;;;;;5074997;28;20100;-74
2022/09/11 11:14:00;;;;;;;2.20;0.80;;;27.30;91.50;;;;;;5078116;28;20024;-76
2022/09/11 11:16:42;;;;;;;2.42;1.05;;;27.40;91.70;;;;;;5066384;28;20494;-75
2022/09/11 11:19:46;;;;;;;4.53;1.27;;;27.50;91.60;;;;;;5061646;28;20025;-75
2022/09/11 11:22:33;;;;;;;2.92;0.80;;;27.60;90.30;;;;;;5074255;28;20107;-76
2022/09/11 11:25:05;;;;;;;1.60;0.60;;;27.70;90.60;;;;;;5069505;28;20013;-75
2022/09/11 11:28:10;;;;;;;4.88;1.10;;;27.70;90.70;;;;;;5066762;28;20009;-74
2022/09/11 11:31:00;;;;;;;1.10;0.60;;;27.70;91.30;;;;;;5062894;28;20039;-75
2022/09/11 11:34:03;;;;;;;4.95;1.17;;;27.80;89.10;;;;;;5071037;28;20103;-75
2022/09/11 11:36:36;;;;;;;3.03;0.85;;;27.80;91.00;;;;;;5074596;28;20044;-76
2022/09/11 11:39:40;;;;;;;1.67;0.63;;;27.90;90.00;;;;;;5073237;28;20100;-75
2022/09/11 11:42:15;;;;;;;2.22;0.80;;;27.90;90.10;;;;;;5068822;28;20031;-76
2022/09/11 11:45:05;;;;;;;2.35;0.82;;;28.10;87.20;;;;;;5075112;28;20510;-76
2022/09/11 11:47:41;;;;;;;2.40;0.65;;;28.20;87.70;;;;;;5062768;28;20478;-76
2022/09/11 11:50:20;;;;;;;2.67;0.70;;;28.20;86.30;;;;;;5058244;28;20033;-76
2022/09/11 11:53:04;;;;;;;2.05;0.57;;;28.20;85.50;;;;;;5073071;28;20016;-75
2022/09/11 11:55:54;;;;;;;4.55;0.80;;;28.30;85.50;;;;;;5071089;28;20025;-77
2022/09/11 11:58:36;;;;;;;3.63;0.80;;;28.40;83.40;;;;;;5064982;28;20013;-76
2022/09/11 12:01:09;;;;;;;3.38;0.88;;;28.40;86.60;;;;;;5069980;28;20028;-76
2022/09/11 12:03:44;;;;;;;4.53;0.93;;;28.50;85.60;;;;;;5081054;28;20025;-76
2022/09/11 12:06:11;;;;;;;2.00;0.60;;;28.50;83.80;;;;;;5070074;28;20119;-76
2022/09/11 12:08:46;;;;;;;1.20;0.50;;;28.50;84.70;;;;;;5069002;28;20096;-75
2022/09/11 12:11:17;;;;;;;2.05;0.90;;;28.60;81.40;;;;;;5073571;28;20047;-76
2022/09/11 12:13:46;;;;;;;3.58;1.00;;;28.70;82.80;;;;;;5071247;28;20013;-76
2022/09/11 12:16:20;;;;;;;2.00;0.75;;;28.70;83.90;;;;;;5076219;28;20021;-75
2022/09/11 12:19:13;;;;;;;2.08;0.88;;;28.90;82.00;;;;;;5076813;28;20009;-75
2022/09/11 12:21:41;;;;;;;2.30;0.45;;;28.80;82.20;;;;;;5063696;28;20100;-75
2022/09/11 12:24:07;;;;;;;1.42;0.40;;;28.90;83.70;;;;;;5059579;28;20021;-79
2022/09/11 12:26:33;;;;;;;3.95;0.70;;;29.00;78.90;;;;;;5067138;28;20029;-77
2022/09/11 12:29:11;;;;;;;3.28;1.10;;;29.10;78.30;;;;;;5061019;28;20040;-76
2022/09/11 12:31:49;;;;;;;2.30;0.50;;;29.10;77.30;;;;;;5065598;28;20025;-76
2022/09/11 12:34:19;;;;;;;1.65;0.50;;;29.20;78.60;;;;;;5071139;28;20028;-75
2022/09/11 12:36:52;;;;;;;6.50;0.80;;;29.30;77.20;;;;;;5068899;28;20060;-76
2022/09/11 12:39:38;;;;;;;4.53;1.05;;;29.30;78.00;;;;;;5069932;28;20027;-75
2022/09/11 12:42:25;;;;;;;2.70;0.70;;;29.30;76.90;;;;;;5069638;28;20445;-75
2022/09/11 12:44:51;;;;;;;2.50;0.70;;;29.40;77.80;;;;;;5060702;28;20119;-78
2022/09/11 12:47:22;;;;;;;2.65;0.60;;;29.50;79.10;;;;;;5070684;28;20063;-75
2022/09/11 12:50:05;;;;;;;1.95;0.70;;;29.50;75.70;;;;;;5074834;28;20025;-75
2022/09/11 12:52:46;;;;;;;1.13;0.50;;;29.50;75.00;;;;;;5075238;28;20017;-76
2022/09/11 12:55:42;;;;;;;3.90;0.82;;;29.60;76.00;;;;;;5075771;28;20102;-74
2022/09/11 12:58:19;;;;;;;1.08;0.32;;;29.60;75.60;;;;;;5041471;28;20124;-76
2022/09/11 13:00:48;;;;;;;0.80;0.40;;;29.80;75.30;;;;;;5065124;28;20104;-75
2022/09/11 13:03:21;;;;;;;2.15;0.75;;;29.90;73.00;;;;;;5067095;28;20017;-75
2022/09/11 13:06:08;;;;;;;2.42;0.73;;;30.00;71.80;;;;;;5069895;28;20128;-76
2022/09/11 13:08:39;;;;;;;1.90;0.50;;;30.20;73.80;;;;;;5067203;28;20025;-77
2022/09/11 13:11:34;;;;;;;3.05;0.50;;;30.20;73.80;;;;;;5073986;28;20016;-75
2022/09/11 13:14:00;;;;;;;2.78;0.60;;;30.20;71.00;;;;;;5075256;28;20059;-75